LTBU/TEQ METAR and TAF weather

Enter ICAO airport designator
Station Type Date Time Source
LTBU METAR 2021/04/13 06:50 UTC NOAA

LTBU 130650Z 13006KT 8000 NSC 12/08 Q1019


Station Type Date Time Source
LTBU Decoded METAR 2021/04/13 06:50 UTC NOAA

Corlu, Turkey (LTBU) 41-08N 027-55E
Apr 13, 2021 - 02:50 AM EDT / 2021.04.13 0650 UTC
Wind: from the SE (130 degrees) at 7 MPH (6 KT):0
Visibility: 4 mile(s):0
Temperature: 53 F (12 C)
Dew Point: 46 F (8 C)
Relative Humidity: 76%
Pressure (altimeter): 30.09 in. Hg (1019 hPa)
ob: LTBU 130650Z 13006KT 8000 NSC 12/08 Q1019
cycle: 7

Station Type Date Time Source
LTBU TAF 2021/04/13 06:03 UTC NOAA

TAF LTBU 130440Z 1306/1406 VRB02KT CAVOK
BECMG 1306/1309 17012KT
BECMG 1314/1317 VRB02KT -SHRA SCT025 BKN080
BECMG 1322/1401 4000 BR

Example: see airport list